sensor_id;sensor_type;location;lat;lon;timestamp;pressure;altitude;pressure_sealevel;temperature;humidity
19590;BME280;12231;42.782;23.388;2022-08-03T00:01:58;95566.75;;;22.04;68.41
19590;BME280;12231;42.782;23.388;2022-08-03T00:04:23;95561.03;;;22.08;67.80
19590;BME280;12231;42.782;23.388;2022-08-03T00:06:49;95563.69;;;22.16;68.32
19590;BME280;12231;42.782;23.388;2022-08-03T00:09:14;95560.53;;;22.13;67.89
19590;BME280;12231;42.782;23.388;2022-08-03T00:11:40;95561.88;;;21.67;68.86
19590;BME280;12231;42.782;23.388;2022-08-03T00:14:06;95559.84;;;21.11;70.98
19590;BME280;12231;42.782;23.388;2022-08-03T00:16:32;95569.16;;;20.37;73.93
19590;BME280;12231;42.782;23.388;2022-08-03T00:18:58;95567.94;;;20.14;76.33
19590;BME280;12231;42.782;23.388;2022-08-03T00:21:23;95562.84;;;19.95;76.31
19590;BME280;12231;42.782;23.388;2022-08-03T00:23:49;95564.06;;;19.56;78.49
19590;BME280;12231;42.782;23.388;2022-08-03T00:26:14;95563.00;;;19.49;80.26
19590;BME280;12231;42.782;23.388;2022-08-03T00:28:39;95560.72;;;19.36;82.11
19590;BME280;12231;42.782;23.388;2022-08-03T00:31:06;95562.31;;;19.47;80.80
19590;BME280;12231;42.782;23.388;2022-08-03T00:33:32;95563.59;;;19.43;82.13
19590;BME280;12231;42.782;23.388;2022-08-03T00:35:57;95561.56;;;19.37;82.41
19590;BME280;12231;42.782;23.388;2022-08-03T00:38:22;95563.94;;;19.30;83.07
19590;BME280;12231;42.782;23.388;2022-08-03T00:40:48;95565.47;;;19.13;84.38
19590;BME280;12231;42.782;23.388;2022-08-03T00:43:13;95561.16;;;19.59;83.60
19590;BME280;12231;42.782;23.388;2022-08-03T00:45:40;95558.44;;;19.95;81.15
19590;BME280;12231;42.782;23.388;2022-08-03T00:48:10;95553.44;;;20.37;78.87
19590;BME280;12231;42.782;23.388;2022-08-03T00:50:38;95558.59;;;20.72;77.04
19590;BME280;12231;42.782;23.388;2022-08-03T00:53:05;95547.84;;;21.01;75.76
19590;BME280;12231;42.782;23.388;2022-08-03T00:55:32;95553.88;;;21.27;74.23
19590;BME280;12231;42.782;23.388;2022-08-03T00:57:57;95553.09;;;21.42;73.67
19590;BME280;12231;42.782;23.388;2022-08-03T01:00:25;95558.38;;;21.50;72.97
19590;BME280;12231;42.782;23.388;2022-08-03T01:02:52;95556.94;;;21.56;72.39
19590;BME280;12231;42.782;23.388;2022-08-03T01:05:18;95550.72;;;21.65;72.35
19590;BME280;12231;42.782;23.388;2022-08-03T01:08:04;95553.91;;;21.77;71.67
19590;BME280;12231;42.782;23.388;2022-08-03T01:11:00;95554.91;;;21.84;71.46
19590;BME280;12231;42.782;23.388;2022-08-03T01:16:11;95551.00;;;21.96;71.10
19590;BME280;12231;42.782;23.388;2022-08-03T01:18:41;95559.38;;;21.99;71.04
19590;BME280;12231;42.782;23.388;2022-08-03T01:21:25;95552.63;;;21.81;71.16
19590;BME280;12231;42.782;23.388;2022-08-03T01:29:45;95546.63;;;20.44;74.98
19590;BME280;12231;42.782;23.388;2022-08-03T01:32:19;95542.66;;;20.40;78.80
19590;BME280;12231;42.782;23.388;2022-08-03T01:34:54;95546.44;;;20.63;78.00
19590;BME280;12231;42.782;23.388;2022-08-03T01:37:36;95541.19;;;20.89;76.49
19590;BME280;12231;42.782;23.388;2022-08-03T01:40:04;95538.72;;;21.13;74.87
19590;BME280;12231;42.782;23.388;2022-08-03T01:42:31;95543.22;;;21.28;73.44
19590;BME280;12231;42.782;23.388;2022-08-03T01:44:58;95549.19;;;21.38;72.90
19590;BME280;12231;42.782;23.388;2022-08-03T01:47:26;95548.22;;;21.47;72.06
19590;BME280;12231;42.782;23.388;2022-08-03T01:49:55;95551.69;;;21.56;71.07
19590;BME280;12231;42.782;23.388;2022-08-03T01:52:22;95546.78;;;21.53;71.00
19590;BME280;12231;42.782;23.388;2022-08-03T01:54:50;95540.84;;;21.51;70.81
19590;BME280;12231;42.782;23.388;2022-08-03T01:57:17;95545.28;;;21.58;70.77
19590;BME280;12231;42.782;23.388;2022-08-03T01:59:44;95547.38;;;21.47;70.32
19590;BME280;12231;42.782;23.388;2022-08-03T02:02:13;95548.47;;;21.28;71.25
19590;BME280;12231;42.782;23.388;2022-08-03T02:04:44;95547.63;;;21.28;71.98
19590;BME280;12231;42.782;23.388;2022-08-03T02:07:13;95547.63;;;21.28;71.87
19590;BME280;12231;42.782;23.388;2022-08-03T02:09:39;95554.00;;;21.17;72.86
19590;BME280;12231;42.782;23.388;2022-08-03T02:12:10;95547.97;;;21.25;72.79
19590;BME280;12231;42.782;23.388;2022-08-03T02:14:38;95548.28;;;21.22;72.42
19590;BME280;12231;42.782;23.388;2022-08-03T02:17:06;95546.63;;;21.21;73.29
19590;BME280;12231;42.782;23.388;2022-08-03T02:19:33;95541.91;;;21.32;72.74
19590;BME280;12231;42.782;23.388;2022-08-03T02:22:01;95547.22;;;21.48;71.79
19590;BME280;12231;42.782;23.388;2022-08-03T02:24:28;95553.13;;;21.50;71.94
19590;BME280;12231;42.782;23.388;2022-08-03T02:26:55;95550.19;;;21.53;71.79
19590;BME280;12231;42.782;23.388;2022-08-03T02:29:24;95551.03;;;21.62;71.48
19590;BME280;12231;42.782;23.388;2022-08-03T02:31:51;95556.97;;;21.64;71.12
19590;BME280;12231;42.782;23.388;2022-08-03T02:34:20;95555.47;;;21.69;71.05
19590;BME280;12231;42.782;23.388;2022-08-03T02:36:51;95566.50;;;21.73;70.76
19590;BME280;12231;42.782;23.388;2022-08-03T02:39:20;95559.09;;;21.68;70.68
19590;BME280;12231;42.782;23.388;2022-08-03T02:41:51;95557.63;;;21.66;70.18
19590;BME280;12231;42.782;23.388;2022-08-03T02:44:22;95559.94;;;21.69;70.39
19590;BME280;12231;42.782;23.388;2022-08-03T02:46:55;95557.47;;;21.67;69.53
19590;BME280;12231;42.782;23.388;2022-08-03T02:49:23;95557.78;;;21.64;69.56
19590;BME280;12231;42.782;23.388;2022-08-03T02:51:51;95559.09;;;21.60;69.61
19590;BME280;12231;42.782;23.388;2022-08-03T02:54:18;95554.50;;;21.62;69.20
19590;BME280;12231;42.782;23.388;2022-08-03T02:56:47;95552.56;;;21.64;69.14
19590;BME280;12231;42.782;23.388;2022-08-03T02:59:13;95566.31;;;21.66;68.78
19590;BME280;12231;42.782;23.388;2022-08-03T03:01:41;95567.97;;;21.67;68.45
19590;BME280;12231;42.782;23.388;2022-08-03T03:04:08;95568.59;;;21.61;68.31
19590;BME280;12231;42.782;23.388;2022-08-03T03:06:35;95564.00;;;21.63;68.05
19590;BME280;12231;42.782;23.388;2022-08-03T03:09:01;95568.28;;;21.64;68.62
19590;BME280;12231;42.782;23.388;2022-08-03T03:11:27;95567.13;;;21.67;68.04
19590;BME280;12231;42.782;23.388;2022-08-03T03:13:56;95562.56;;;21.69;67.94
19590;BME280;12231;42.782;23.388;2022-08-03T03:16:22;95575.69;;;21.69;68.22
19590;BME280;12231;42.782;23.388;2022-08-03T03:18:50;95577.16;;;21.71;68.03
19590;BME280;12231;42.782;23.388;2022-08-03T03:21:17;95580.75;;;21.70;67.70
19590;BME280;12231;42.782;23.388;2022-08-03T03:23:44;95579.44;;;21.74;68.11
19590;BME280;12231;42.782;23.388;2022-08-03T03:26:12;95580.59;;;21.72;67.80
19590;BME280;12231;42.782;23.388;2022-08-03T03:28:38;95572.56;;;21.73;67.45
19590;BME280;12231;42.782;23.388;2022-08-03T03:31:05;95581.13;;;21.75;67.75
19590;BME280;12231;42.782;23.388;2022-08-03T03:33:32;95582.00;;;21.84;67.32
19590;BME280;12231;42.782;23.388;2022-08-03T03:35:59;95581.16;;;21.84;68.75
19590;BME280;12231;42.782;23.388;2022-08-03T03:38:25;95583.31;;;21.96;70.76
19590;BME280;12231;42.782;23.388;2022-08-03T03:40:51;95583.66;;;22.01;69.14
19590;BME280;12231;42.782;23.388;2022-08-03T03:43:16;95582.84;;;22.01;68.36
19590;BME280;12231;42.782;23.388;2022-08-03T03:45:46;95587.13;;;22.02;68.01
19590;BME280;12231;42.782;23.388;2022-08-03T03:48:12;95584.66;;;22.00;nan
19590;BME280;12231;42.782;23.388;2022-08-03T03:50:37;95585.59;;;21.91;67.29
19590;BME280;12231;42.782;23.388;2022-08-03T03:53:08;95595.00;;;22.02;67.47
19590;BME280;12231;42.782;23.388;2022-08-03T03:55:36;95596.66;;;22.27;66.68
19590;BME280;12231;42.782;23.388;2022-08-03T03:58:02;95590.31;;;22.53;65.93
19590;BME280;12231;42.782;23.388;2022-08-03T04:00:28;95591.94;;;22.78;64.27
19590;BME280;12231;42.782;23.388;2022-08-03T04:02:53;95588.97;;;22.97;63.64
19590;BME280;12231;42.782;23.388;2022-08-03T04:05:19;95590.41;;;23.16;62.88
19590;BME280;12231;42.782;23.388;2022-08-03T04:08:08;95580.13;;;23.61;62.37
19590;BME280;12231;42.782;23.388;2022-08-03T04:11:17;95584.16;;;24.10;64.10
19590;BME280;12231;42.782;23.388;2022-08-03T04:17:05;95601.47;;;24.81;59.51
19590;BME280;12231;42.782;23.388;2022-08-03T04:19:35;95599.13;;;24.86;59.13
19590;BME280;12231;42.782;23.388;2022-08-03T04:22:06;95601.06;;;24.69;59.38
19590;BME280;12231;42.782;23.388;2022-08-03T04:24:39;95604.75;;;24.83;58.77
19590;BME280;12231;42.782;23.388;2022-08-03T04:27:07;95604.84;;;24.89;57.87
19590;BME280;12231;42.782;23.388;2022-08-03T04:29:34;95599.13;;;24.63;59.92
19590;BME280;12231;42.782;23.388;2022-08-03T04:32:02;95599.41;;;24.91;58.77
19590;BME280;12231;42.782;23.388;2022-08-03T04:34:29;95597.97;;;25.40;57.70
19590;BME280;12231;42.782;23.388;2022-08-03T04:36:59;95606.31;;;25.87;55.61
19590;BME280;12231;42.782;23.388;2022-08-03T04:39:30;95605.66;;;26.35;54.07
19590;BME280;12231;42.782;23.388;2022-08-03T04:42:01;95599.09;;;26.88;52.09
19590;BME280;12231;42.782;23.388;2022-08-03T04:44:28;95600.50;;;27.39;51.42
19590;BME280;12231;42.782;23.388;2022-08-03T04:46:55;95596.16;;;27.59;50.60
19590;BME280;12231;42.782;23.388;2022-08-03T04:49:22;95599.06;;;28.05;49.89
19590;BME280;12231;42.782;23.388;2022-08-03T04:51:49;95603.31;;;28.53;48.63
19590;BME280;12231;42.782;23.388;2022-08-03T04:54:15;95604.59;;;28.96;47.53
19590;BME280;12231;42.782;23.388;2022-08-03T04:56:43;95605.84;;;29.13;47.07
19590;BME280;12231;42.782;23.388;2022-08-03T04:59:09;95608.66;;;29.58;45.68
19590;BME280;12231;42.782;23.388;2022-08-03T05:01:35;95604.19;;;30.22;44.88
19590;BME280;12231;42.782;23.388;2022-08-03T05:04:02;95612.84;;;30.48;44.07
19590;BME280;12231;42.782;23.388;2022-08-03T05:06:27;95610.84;;;30.75;43.43
19590;BME280;12231;42.782;23.388;2022-08-03T05:08:53;95618.69;;;31.01;43.16
19590;BME280;12231;42.782;23.388;2022-08-03T05:11:19;95607.91;;;31.45;42.36
19590;BME280;12231;42.782;23.388;2022-08-03T05:13:46;95610.94;;;31.67;41.36
19590;BME280;12231;42.782;23.388;2022-08-03T05:16:12;95611.34;;;31.88;41.27
19590;BME280;12231;42.782;23.388;2022-08-03T05:18:38;95616.69;;;32.43;40.27
19590;BME280;12231;42.782;23.388;2022-08-03T05:21:04;95616.66;;;32.61;39.76
19590;BME280;12231;42.782;23.388;2022-08-03T05:23:29;95618.59;;;32.18;39.89
19590;BME280;12231;42.782;23.388;2022-08-03T05:25:55;95627.13;;;32.26;39.78
19590;BME280;12231;42.782;23.388;2022-08-03T05:28:20;95631.53;;;32.68;39.75
19590;BME280;12231;42.782;23.388;2022-08-03T05:30:46;95623.53;;;32.98;39.78
19590;BME280;12231;42.782;23.388;2022-08-03T05:33:11;95621.94;;;32.31;42.10
19590;BME280;12231;42.782;23.388;2022-08-03T05:35:37;95620.00;;;32.38;41.41
19590;BME280;12231;42.782;23.388;2022-08-03T05:38:03;95625.13;;;32.99;40.69
19590;BME280;12231;42.782;23.388;2022-08-03T05:40:34;95631.28;;;32.22;41.32
19590;BME280;12231;42.782;23.388;2022-08-03T05:43:01;95636.47;;;30.69;44.71
19590;BME280;12231;42.782;23.388;2022-08-03T05:45:26;95644.50;;;31.01;44.58
19590;BME280;12231;42.782;23.388;2022-08-03T05:47:51;95639.94;;;32.36;41.22
19590;BME280;12231;42.782;23.388;2022-08-03T05:50:18;95637.97;;;33.31;39.38
19590;BME280;12231;42.782;23.388;2022-08-03T05:52:44;95637.81;;;33.56;37.82
19590;BME280;12231;42.782;23.388;2022-08-03T05:55:10;95641.88;;;33.70;39.01
19590;BME280;12231;42.782;23.388;2022-08-03T05:57:37;95637.38;;;34.33;37.45
19590;BME280;12231;42.782;23.388;2022-08-03T06:00:07;95642.69;;;34.96;35.79
19590;BME280;12231;42.782;23.388;2022-08-03T06:02:33;95646.09;;;35.08;34.71
19590;BME280;12231;42.782;23.388;2022-08-03T06:04:59;95640.69;;;35.53;35.29
19590;BME280;12231;42.782;23.388;2022-08-03T06:07:24;95649.16;;;35.45;34.75
19590;BME280;12231;42.782;23.388;2022-08-03T06:09:50;95646.63;;;35.38;34.02
19590;BME280;12231;42.782;23.388;2022-08-03T06:12:15;95654.72;;;35.10;33.88
19590;BME280;12231;42.782;23.388;2022-08-03T06:14:41;95652.44;;;35.19;34.09
19590;BME280;12231;42.782;23.388;2022-08-03T06:17:06;95654.38;;;35.07;34.89
19590;BME280;12231;42.782;23.388;2022-08-03T06:19:32;95647.75;;;34.41;35.75
19590;BME280;12231;42.782;23.388;2022-08-03T06:21:57;95645.88;;;34.30;36.08
19590;BME280;12231;42.782;23.388;2022-08-03T06:24:23;95642.94;;;35.28;35.31
19590;BME280;12231;42.782;23.388;2022-08-03T06:26:48;95640.97;;;35.07;34.80
19590;BME280;12231;42.782;23.388;2022-08-03T06:29:14;95638.81;;;35.86;33.87
19590;BME280;12231;42.782;23.388;2022-08-03T06:31:39;95641.31;;;35.93;33.52
19590;BME280;12231;42.782;23.388;2022-08-03T06:34:05;95652.09;;;34.99;35.31
19590;BME280;12231;42.782;23.388;2022-08-03T06:36:30;95636.03;;;35.81;34.13
19590;BME280;12231;42.782;23.388;2022-08-03T06:38:59;95647.34;;;33.98;36.66
19590;BME280;12231;42.782;23.388;2022-08-03T06:41:26;95640.13;;;35.51;34.65
19590;BME280;12231;42.782;23.388;2022-08-03T06:43:51;95636.41;;;36.07;33.56
19590;BME280;12231;42.782;23.388;2022-08-03T06:46:17;95635.22;;;36.84;32.27
19590;BME280;12231;42.782;23.388;2022-08-03T06:48:43;95631.88;;;36.98;32.66
19590;BME280;12231;42.782;23.388;2022-08-03T06:51:08;95634.97;;;36.85;32.63
19590;BME280;12231;42.782;23.388;2022-08-03T06:53:34;95636.88;;;37.16;32.16
19590;BME280;12231;42.782;23.388;2022-08-03T06:56:00;95635.59;;;39.01;28.91
19590;BME280;12231;42.782;23.388;2022-08-03T06:58:25;95625.63;;;40.02;27.63
19590;BME280;12231;42.782;23.388;2022-08-03T07:00:51;95637.03;;;38.52;29.09
19590;BME280;12231;42.782;23.388;2022-08-03T07:03:16;95639.09;;;35.52;32.93
19590;BME280;12231;42.782;23.388;2022-08-03T07:05:42;95631.50;;;37.43;30.71
19590;BME280;12231;42.782;23.388;2022-08-03T07:08:10;95629.56;;;37.34;31.31
19590;BME280;12231;42.782;23.388;2022-08-03T07:10:39;95627.41;;;37.09;31.28
19590;BME280;12231;42.782;23.388;2022-08-03T07:13:04;95634.56;;;39.32;29.03
19590;BME280;12231;42.782;23.388;2022-08-03T07:15:30;95626.13;;;38.16;29.66
19590;BME280;12231;42.782;23.388;2022-08-03T07:17:56;95632.66;;;39.42;28.66
19590;BME280;12231;42.782;23.388;2022-08-03T07:20:21;95632.41;;;39.74;27.54
19590;BME280;12231;42.782;23.388;2022-08-03T07:22:47;95638.84;;;37.84;29.28
19590;BME280;12231;42.782;23.388;2022-08-03T07:25:13;95618.34;;;40.07;26.83
19590;BME280;12231;42.782;23.388;2022-08-03T07:27:42;95627.56;;;39.66;27.87
19590;BME280;12231;42.782;23.388;2022-08-03T07:30:08;95633.78;;;39.56;28.51
19590;BME280;12231;42.782;23.388;2022-08-03T07:32:34;95628.34;;;39.82;27.91
19590;BME280;12231;42.782;23.388;2022-08-03T07:34:59;95636.44;;;36.28;32.20
19590;BME280;12231;42.782;23.388;2022-08-03T07:37:25;95628.47;;;38.13;30.29
19590;BME280;12231;42.782;23.388;2022-08-03T07:39:50;95625.56;;;40.22;26.99
19590;BME280;12231;42.782;23.388;2022-08-03T07:42:16;95625.38;;;39.43;28.11
19590;BME280;12231;42.782;23.388;2022-08-03T07:44:41;95625.69;;;39.46;28.11
19590;BME280;12231;42.782;23.388;2022-08-03T07:47:07;95619.22;;;40.56;27.41
19590;BME280;12231;42.782;23.388;2022-08-03T07:49:32;95625.66;;;39.92;27.54
19590;BME280;12231;42.782;23.388;2022-08-03T07:51:58;95621.06;;;40.71;26.43
19590;BME280;12231;42.782;23.388;2022-08-03T07:54:42;95633.34;;;36.84;30.98
19590;BME280;12231;42.782;23.388;2022-08-03T07:57:07;95633.94;;;38.90;30.34
19590;BME280;12231;42.782;23.388;2022-08-03T07:59:33;95622.09;;;40.06;28.42
19590;BME280;12231;42.782;23.388;2022-08-03T08:01:59;95616.44;;;41.87;25.61
19590;BME280;12231;42.782;23.388;2022-08-03T08:04:25;95628.13;;;43.01;25.26
19590;BME280;12231;42.782;23.388;2022-08-03T08:06:50;95625.56;;;43.28;24.01
19590;BME280;12231;42.782;23.388;2022-08-03T08:09:16;95622.56;;;43.29;23.94
19590;BME280;12231;42.782;23.388;2022-08-03T08:11:41;95620.00;;;44.70;22.76
19590;BME280;12231;42.782;23.388;2022-08-03T08:14:06;95626.38;;;43.79;24.54
19590;BME280;12231;42.782;23.388;2022-08-03T08:16:32;95632.19;;;43.22;24.13
19590;BME280;12231;42.782;23.388;2022-08-03T08:18:57;95619.00;;;44.66;22.40
19590;BME280;12231;42.782;23.388;2022-08-03T08:21:23;95617.78;;;44.04;23.21
19590;BME280;12231;42.782;23.388;2022-08-03T08:23:48;95618.75;;;41.70;26.15
19590;BME280;12231;42.782;23.388;2022-08-03T08:26:14;95618.69;;;44.40;23.44
19590;BME280;12231;42.782;23.388;2022-08-03T08:28:39;95613.09;;;45.00;22.26
19590;BME280;12231;42.782;23.388;2022-08-03T08:31:05;95622.97;;;44.96;22.49
19590;BME280;12231;42.782;23.388;2022-08-03T08:33:30;95612.06;;;45.67;22.13
19590;BME280;12231;42.782;23.388;2022-08-03T08:35:56;95618.56;;;41.90;24.30
19590;BME280;12231;42.782;23.388;2022-08-03T08:38:22;95608.69;;;42.28;25.25
19590;BME280;12231;42.782;23.388;2022-08-03T08:40:49;95609.31;;;44.19;23.19
19590;BME280;12231;42.782;23.388;2022-08-03T08:43:14;95612.91;;;42.63;24.30
19590;BME280;12231;42.782;23.388;2022-08-03T08:45:40;95610.75;;;41.22;25.72
19590;BME280;12231;42.782;23.388;2022-08-03T08:48:06;95603.19;;;40.75;25.54
19590;BME280;12231;42.782;23.388;2022-08-03T08:50:36;95605.97;;;39.46;27.63
19590;BME280;12231;42.782;23.388;2022-08-03T08:53:06;95597.50;;;40.08;26.64
19590;BME280;12231;42.782;23.388;2022-08-03T08:55:33;95595.94;;;39.87;27.25
19590;BME280;12231;42.782;23.388;2022-08-03T08:58:02;95601.06;;;39.83;26.57
19590;BME280;12231;42.782;23.388;2022-08-03T09:00:28;95599.72;;;39.15;27.41
19590;BME280;12231;42.782;23.388;2022-08-03T09:02:55;95598.91;;;39.25;27.87
19590;BME280;12231;42.782;23.388;2022-08-03T09:05:20;95599.19;;;39.08;28.21
19590;BME280;12231;42.782;23.388;2022-08-03T09:07:47;95597.91;;;37.87;30.62
19590;BME280;12231;42.782;23.388;2022-08-03T09:10:14;95594.16;;;37.52;30.01
19590;BME280;12231;42.782;23.388;2022-08-03T09:12:45;95600.00;;;37.12;30.88
19590;BME280;12231;42.782;23.388;2022-08-03T09:17:46;95598.97;;;36.38;33.29
19590;BME280;12231;42.782;23.388;2022-08-03T09:20:12;95596.94;;;36.29;33.37
19590;BME280;12231;42.782;23.388;2022-08-03T09:23:08;95596.34;;;35.67;33.57
19590;BME280;12231;42.782;23.388;2022-08-03T09:25:37;95605.06;;;34.91;34.07
19590;BME280;12231;42.782;23.388;2022-08-03T09:28:13;95602.78;;;34.43;35.29
19590;BME280;12231;42.782;23.388;2022-08-03T09:30:44;95599.72;;;34.51;34.82
19590;BME280;12231;42.782;23.388;2022-08-03T09:33:12;95592.25;;;34.14;36.17
19590;BME280;12231;42.782;23.388;2022-08-03T09:35:45;95595.81;;;33.91;35.41
19590;BME280;12231;42.782;23.388;2022-08-03T09:38:18;95598.13;;;33.99;36.35
19590;BME280;12231;42.782;23.388;2022-08-03T09:40:48;95594.31;;;33.61;35.45
19590;BME280;12231;42.782;23.388;2022-08-03T09:43:13;95604.22;;;32.66;38.23
19590;BME280;12231;42.782;23.388;2022-08-03T09:45:39;95596.31;;;32.89;38.02
19590;BME280;12231;42.782;23.388;2022-08-03T09:48:27;95607.16;;;32.47;38.58
19590;BME280;12231;42.782;23.388;2022-08-03T09:53:19;95597.72;;;33.03;36.59
19590;BME280;12231;42.782;23.388;2022-08-03T09:55:57;95595.78;;;33.22;36.18
19590;BME280;12231;42.782;23.388;2022-08-03T09:58:25;95590.09;;;33.18;33.96
19590;BME280;12231;42.782;23.388;2022-08-03T10:01:03;95588.59;;;33.34;35.67
19590;BME280;12231;42.782;23.388;2022-08-03T10:03:34;95593.81;;;33.87;35.80
19590;BME280;12231;42.782;23.388;2022-08-03T10:06:14;95589.75;;;33.73;33.45
19590;BME280;12231;42.782;23.388;2022-08-03T10:08:40;95580.63;;;34.20;31.47
19590;BME280;12231;42.782;23.388;2022-08-03T10:11:05;95586.19;;;34.30;33.21
19590;BME280;12231;42.782;23.388;2022-08-03T10:13:31;95576.97;;;33.75;32.32
19590;BME280;12231;42.782;23.388;2022-08-03T10:15:57;95578.25;;;33.95;32.64
19590;BME280;12231;42.782;23.388;2022-08-03T10:18:23;95581.25;;;33.87;33.48
19590;BME280;12231;42.782;23.388;2022-08-03T10:20:51;95577.41;;;34.46;32.11
19590;BME280;12231;42.782;23.388;2022-08-03T10:23:20;95577.22;;;34.81;31.67
19590;BME280;12231;42.782;23.388;2022-08-03T10:25:47;95576.75;;;34.27;33.93
19590;BME280;12231;42.782;23.388;2022-08-03T10:28:15;95568.34;;;34.92;33.19
19590;BME280;12231;42.782;23.388;2022-08-03T10:30:46;95572.50;;;35.16;34.56
19590;BME280;12231;42.782;23.388;2022-08-03T10:33:27;95567.88;;;35.11;34.82
19590;BME280;12231;42.782;23.388;2022-08-03T10:35:56;95559.16;;;35.04;33.60
19590;BME280;12231;42.782;23.388;2022-08-03T10:38:29;95570.59;;;35.16;33.99
19590;BME280;12231;42.782;23.388;2022-08-03T10:40:58;95559.25;;;35.80;34.35
19590;BME280;12231;42.782;23.388;2022-08-03T10:43:29;95556.31;;;35.82;32.82
19590;BME280;12231;42.782;23.388;2022-08-03T10:45:57;95555.66;;;35.75;31.93
19590;BME280;12231;42.782;23.388;2022-08-03T10:48:25;95552.00;;;35.26;31.09
19590;BME280;12231;42.782;23.388;2022-08-03T10:50:50;95553.56;;;35.06;32.16
19590;BME280;12231;42.782;23.388;2022-08-03T10:53:39;95542.66;;;35.45;34.21
19590;BME280;12231;42.782;23.388;2022-08-03T10:59:55;95546.78;;;35.20;32.57
19590;BME280;12231;42.782;23.388;2022-08-03T11:02:05;95538.09;;;35.46;33.14
19590;BME280;12231;42.782;23.388;2022-08-03T11:04:33;95537.34;;;34.11;33.49
19590;BME280;12231;42.782;23.388;2022-08-03T11:07:19;95542.91;;;33.35;35.19
19590;BME280;12231;42.782;23.388;2022-08-03T11:09:56;95542.44;;;33.62;37.22
19590;BME280;12231;42.782;23.388;2022-08-03T11:12:27;95553.63;;;31.58;38.36
19590;BME280;12231;42.782;23.388;2022-08-03T11:14:54;95543.41;;;32.80;36.19
19590;BME280;12231;42.782;23.388;2022-08-03T11:17:20;95533.34;;;33.28;36.04
19590;BME280;12231;42.782;23.388;2022-08-03T11:19:51;95527.78;;;32.24;35.40
19590;BME280;12231;42.782;23.388;2022-08-03T11:22:17;95516.06;;;33.30;36.17
19590;BME280;12231;42.782;23.388;2022-08-03T11:30:10;95525.47;;;34.35;36.21
19590;BME280;12231;42.782;23.388;2022-08-03T11:35:10;95506.16;;;34.61;34.27
19590;BME280;12231;42.782;23.388;2022-08-03T11:43:02;95512.00;;;34.75;32.50
19590;BME280;12231;42.782;23.388;2022-08-03T11:45:28;95510.16;;;33.91;33.91
19590;BME280;12231;42.782;23.388;2022-08-03T11:47:54;95507.22;;;34.32;34.55
19590;BME280;12231;42.782;23.388;2022-08-03T11:50:20;95507.88;;;34.11;36.18
19590;BME280;12231;42.782;23.388;2022-08-03T11:52:47;95510.72;;;33.42;35.49
19590;BME280;12231;42.782;23.388;2022-08-03T11:55:14;95512.19;;;34.12;36.65
19590;BME280;12231;42.782;23.388;2022-08-03T11:57:40;95503.03;;;34.08;33.92
19590;BME280;12231;42.782;23.388;2022-08-03T12:00:32;95509.84;;;34.16;35.34
19590;BME280;12231;42.782;23.388;2022-08-03T12:03:00;95508.66;;;33.95;37.03
19590;BME280;12231;42.782;23.388;2022-08-03T12:05:36;95507.66;;;32.92;35.97
19590;BME280;12231;42.782;23.388;2022-08-03T12:08:03;95497.59;;;33.41;37.23
19590;BME280;12231;42.782;23.388;2022-08-03T12:10:28;95487.97;;;33.91;36.97
19590;BME280;12231;42.782;23.388;2022-08-03T12:12:56;95486.72;;;34.10;36.18
19590;BME280;12231;42.782;23.388;2022-08-03T12:15:29;95472.78;;;34.24;35.26
19590;BME280;12231;42.782;23.388;2022-08-03T12:17:56;95490.84;;;33.89;33.69
19590;BME280;12231;42.782;23.388;2022-08-03T12:20:24;95485.56;;;32.74;35.31
19590;BME280;12231;42.782;23.388;2022-08-03T12:22:50;95484.63;;;31.97;35.92
19590;BME280;12231;42.782;23.388;2022-08-03T12:25:24;95481.75;;;31.99;37.93
19590;BME280;12231;42.782;23.388;2022-08-03T12:27:50;95473.66;;;32.47;36.48
19590;BME280;12231;42.782;23.388;2022-08-03T12:30:17;95472.22;;;32.33;37.40
19590;BME280;12231;42.782;23.388;2022-08-03T12:32:43;95475.22;;;31.23;38.53
19590;BME280;12231;42.782;23.388;2022-08-03T12:35:09;95473.66;;;31.15;38.79
19590;BME280;12231;42.782;23.388;2022-08-03T12:37:35;95471.16;;;31.74;39.34
19590;BME280;12231;42.782;23.388;2022-08-03T12:40:02;95475.38;;;32.00;38.27
19590;BME280;12231;42.782;23.388;2022-08-03T12:42:30;95473.13;;;32.27;37.94
19590;BME280;12231;42.782;23.388;2022-08-03T12:44:56;95469.25;;;32.41;36.61
19590;BME280;12231;42.782;23.388;2022-08-03T12:47:22;95473.56;;;32.53;36.60
19590;BME280;12231;42.782;23.388;2022-08-03T12:49:48;95476.19;;;31.82;36.62
19590;BME280;12231;42.782;23.388;2022-08-03T12:52:15;95467.19;;;31.47;37.63
19590;BME280;12231;42.782;23.388;2022-08-03T12:54:42;95469.34;;;30.96;38.85
19590;BME280;12231;42.782;23.388;2022-08-03T12:57:18;95467.63;;;31.44;38.45
19590;BME280;12231;42.782;23.388;2022-08-03T12:59:44;95466.16;;;31.66;37.53
19590;BME280;12231;42.782;23.388;2022-08-03T13:02:17;95469.38;;;31.68;38.29
19590;BME280;12231;42.782;23.388;2022-08-03T13:04:43;95470.97;;;31.58;37.52
19590;BME280;12231;42.782;23.388;2022-08-03T13:07:14;95460.53;;;31.38;37.80
19590;BME280;12231;42.782;23.388;2022-08-03T13:09:48;95464.94;;;31.26;37.76
19590;BME280;12231;42.782;23.388;2022-08-03T13:12:16;95460.50;;;31.20;37.67
19590;BME280;12231;42.782;23.388;2022-08-03T13:14:43;95470.00;;;31.34;37.88
19590;BME280;12231;42.782;23.388;2022-08-03T13:17:08;95464.47;;;31.29;39.52
19590;BME280;12231;42.782;23.388;2022-08-03T13:19:35;95468.34;;;31.15;38.65
19590;BME280;12231;42.782;23.388;2022-08-03T13:22:09;95463.91;;;31.09;39.20
19590;BME280;12231;42.782;23.388;2022-08-03T13:24:35;95463.31;;;31.07;40.23
19590;BME280;12231;42.782;23.388;2022-08-03T13:27:01;95454.41;;;31.13;39.36
19590;BME280;12231;42.782;23.388;2022-08-03T13:29:26;95460.66;;;31.25;39.79